Time,TemperatureF,DewpointF,PressureIn,WindDirection,WindDirectionDegrees,WindSpeedMPH,WindSpeedGustMPH,Humidity,HourlyPrecipIn,Conditions,Clouds,dailyrainin,SoftwareType,DateUTC
2013-06-24 00:22:00,79.0,76.0,-100.00,SSE,158,10.0,-999.0,92,0.00,,,-99.99,,2013-06-24 04:22:00,
2013-06-24 00:33:00,79.0,76.0,-100.00,SSE,158,10.0,-999.0,92,0.00,,,-99.99,,2013-06-24 04:33:00,
2013-06-24 00:43:00,79.0,76.0,-100.00,SSE,158,10.0,-999.0,92,0.00,,,-99.99,,2013-06-24 04:43:00,
2013-06-24 00:45:00,78.0,76.0,-100.00,SSE,166,10.0,-999.0,93,0.00,,,-99.99,,2013-06-24 04:45:00,
2013-06-24 01:22:00,78.0,76.0,-100.00,SSE,166,10.0,-999.0,93,0.00,,,-99.99,,2013-06-24 05:22:00,
2013-06-24 01:38:00,78.0,76.0,-100.00,SSE,166,10.0,-999.0,93,0.00,,,-99.99,,2013-06-24 05:38:00,
2013-06-24 01:45:00,78.0,76.0,-100.00,South,184,10.0,-999.0,92,0.00,,,-99.99,,2013-06-24 05:45:00,
2013-06-24 02:39:00,78.0,76.0,-100.00,South,184,10.0,-999.0,92,0.00,,,-99.99,,2013-06-24 06:39:00,
2013-06-24 02:45:00,78.0,76.0,-100.00,SSW,196,7.0,-999.0,92,0.00,,,-99.99,,2013-06-24 06:45:00,
2013-06-24 03:31:00,78.0,76.0,-100.00,SSW,196,7.0,-999.0,92,0.00,,,-99.99,,2013-06-24 07:31:00,
2013-06-24 03:37:00,78.0,76.0,-100.00,SSW,196,7.0,-999.0,92,0.00,,,-99.99,,2013-06-24 07:37:00,
2013-06-24 03:45:00,78.0,76.0,-100.00,SW,216,7.0,-999.0,93,0.00,,,-99.99,,2013-06-24 07:45:00,
2013-06-24 04:27:00,78.0,76.0,-100.00,SW,216,7.0,-999.0,93,0.00,,,-99.99,,2013-06-24 08:27:00,
2013-06-24 04:36:00,78.0,76.0,-100.00,SW,216,7.0,-999.0,93,0.00,,,-99.99,,2013-06-24 08:36:00,
2013-06-24 04:45:00,77.0,76.0,-100.00,SW,214,5.0,-999.0,94,0.00,,,-99.99,,2013-06-24 08:45:00,
2013-06-24 05:27:00,77.0,76.0,-100.00,SW,214,5.0,-999.0,94,0.00,,,-99.99,,2013-06-24 09:27:00,
2013-06-24 05:38:00,77.0,76.0,-100.00,SW,214,5.0,-999.0,94,0.00,,,-99.99,,2013-06-24 09:38:00,
2013-06-24 05:45:00,77.0,76.0,-100.00,SW,221,4.0,-999.0,95,0.00,,,-99.99,,2013-06-24 09:45:00,
2013-06-24 06:24:00,77.0,76.0,-100.00,SW,221,4.0,-999.0,95,0.00,,,-99.99,,2013-06-24 10:24:00,
2013-06-24 06:38:00,77.0,76.0,-100.00,SW,221,4.0,-999.0,95,0.00,,,-99.99,,2013-06-24 10:38:00,
2013-06-24 06:45:00,77.0,76.0,-100.00,West,271,2.0,-999.0,96,0.00,,,-99.99,,2013-06-24 10:45:00,
2013-06-24 07:29:00,77.0,76.0,-100.00,West,271,2.0,-999.0,96,0.00,,,-99.99,,2013-06-24 11:29:00,
2013-06-24 07:34:00,77.0,76.0,-100.00,West,271,2.0,-999.0,96,0.00,,,-99.99,,2013-06-24 11:34:00,
2013-06-24 07:45:00,78.0,76.0,-100.00,SW,217,5.0,-999.0,93,0.00,,,-99.99,,2013-06-24 11:45:00,
2013-06-24 08:25:00,78.0,76.0,-100.00,SW,217,5.0,-999.0,93,0.00,,,-99.99,,2013-06-24 12:25:00,
2013-06-24 09:45:00,79.0,76.0,-100.00,SSW,211,8.0,-999.0,88,0.00,,,-99.99,,2013-06-24 13:45:00,
2013-06-24 10:25:00,79.0,76.0,-100.00,SSW,211,8.0,-999.0,88,0.00,,,-99.99,,2013-06-24 14:25:00,
2013-06-24 10:38:00,79.0,76.0,-100.00,SSW,211,8.0,-999.0,88,0.00,,,-99.99,,2013-06-24 14:38:00,
2013-06-24 11:27:00,80.0,74.0,-100.00,SSW,202,9.0,-999.0,82,0.00,,,-99.99,,2013-06-24 15:27:00,
2013-06-24 11:36:00,80.0,74.0,-100.00,SSW,202,9.0,-999.0,82,0.00,,,-99.99,,2013-06-24 15:36:00,
2013-06-24 12:44:00,80.0,74.0,-100.00,SSW,193,6.0,-999.0,82,0.00,,,-99.99,,2013-06-24 16:44:00,
2013-06-24 12:45:00,83.0,75.0,-100.00,South,178,9.0,-999.0,78,0.00,,,-99.99,,2013-06-24 16:45:00,
2013-06-24 13:45:00,78.0,74.0,-100.00,SSE,155,3.0,-999.0,88,0.16,,,-99.99,,2013-06-24 17:45:00,
2013-06-24 14:26:00,78.0,74.0,-100.00,SSE,155,3.0,-999.0,88,0.16,,,-99.99,,2013-06-24 18:26:00,
2013-06-24 14:36:00,78.0,74.0,-100.00,SSE,155,3.0,-999.0,88,0.16,,,-99.99,,2013-06-24 18:36:00,
2013-06-24 14:45:00,81.0,75.0,-100.00,SSW,195,5.0,-999.0,84,0.00,,,-99.99,,2013-06-24 18:45:00,
2013-06-24 15:25:00,81.0,75.0,-100.00,SSW,195,5.0,-999.0,84,0.00,,,-99.99,,2013-06-24 19:25:00,
2013-06-24 15:37:00,81.0,75.0,-100.00,SSW,195,5.0,-999.0,84,0.00,,,-99.99,,2013-06-24 19:37:00,
2013-06-24 15:45:00,82.0,75.0,-100.00,SSW,201,9.0,-999.0,80,0.00,,,-99.99,,2013-06-24 19:45:00,
2013-06-24 16:24:00,82.0,75.0,-100.00,SSW,201,9.0,-999.0,80,0.00,,,-99.99,,2013-06-24 20:24:00,
2013-06-24 16:34:00,82.0,75.0,-100.00,SSW,201,9.0,-999.0,80,0.00,,,-99.99,,2013-06-24 20:34:00,
2013-06-24 16:45:00,82.0,75.0,-100.00,SSW,196,8.0,-999.0,77,0.00,,,-99.99,,2013-06-24 20:45:00,
2013-06-24 17:25:00,82.0,75.0,-100.00,SSW,196,8.0,-999.0,77,0.00,,,-99.99,,2013-06-24 21:25:00,
2013-06-24 17:45:00,82.0,75.0,-100.00,South,190,9.0,-999.0,79,0.00,,,-99.99,,2013-06-24 21:45:00,
2013-06-24 18:36:00,82.0,75.0,-100.00,South,190,9.0,-999.0,79,0.00,,,-99.99,,2013-06-24 22:36:00,
2013-06-24 18:45:00,81.0,75.0,-100.00,South,190,9.0,-999.0,80,0.00,,,-99.99,,2013-06-24 22:45:00,
2013-06-24 19:36:00,81.0,75.0,-100.00,South,190,9.0,-999.0,80,0.00,,,-99.99,,2013-06-24 23:36:00,
2013-06-24 19:45:00,81.0,74.0,-100.00,SSW,202,7.0,-999.0,81,0.00,,,-99.99,,2013-06-24 23:45:00,
2013-06-24 20:24:00,81.0,74.0,-100.00,SSW,202,7.0,-999.0,81,0.00,,,-99.99,,2013-06-25 00:24:00,
2013-06-24 20:35:00,81.0,74.0,-100.00,SSW,202,7.0,-999.0,81,0.00,,,-99.99,,2013-06-25 00:35:00,
2013-06-24 20:45:00,79.0,75.0,-100.00,SW,236,4.0,-999.0,86,0.00,,,-99.99,,2013-06-25 00:45:00,
2013-06-24 21:45:00,79.0,76.0,-100.00,SSW,210,9.0,-999.0,90,0.00,,,-99.99,,2013-06-25 01:45:00,
2013-06-24 22:25:00,79.0,76.0,-100.00,SSW,210,9.0,-999.0,90,0.00,,,-99.99,,2013-06-25 02:25:00,
2013-06-24 22:37:00,79.0,76.0,-100.00,SSW,210,9.0,-999.0,90,0.00,,,-99.99,,2013-06-25 02:37:00,
2013-06-24 22:45:00,79.0,76.0,-100.00,SW,218,10.0,-999.0,89,0.00,,,-99.99,,2013-06-25 02:45:00,